sensor_id;sensor_type;location;lat;lon;timestamp;temperature;humidity
2603;DHT22;1311;47.966;7.958;2023-12-20T00:00:22;7.20;99.90
2603;DHT22;1311;47.966;7.958;2023-12-20T00:02:48;7.10;99.90
2603;DHT22;1311;47.966;7.958;2023-12-20T00:05:15;7.20;99.90
2603;DHT22;1311;47.966;7.958;2023-12-20T00:07:42;7.20;99.90
2603;DHT22;1311;47.966;7.958;2023-12-20T00:10:09;7.30;99.90
2603;DHT22;1311;47.966;7.958;2023-12-20T00:12:39;7.30;99.90
2603;DHT22;1311;47.966;7.958;2023-12-20T00:15:07;7.30;99.90
2603;DHT22;1311;47.966;7.958;2023-12-20T00:17:34;7.30;99.90
2603;DHT22;1311;47.966;7.958;2023-12-20T00:20:00;7.30;99.90
2603;DHT22;1311;47.966;7.958;2023-12-20T00:22:27;7.30;99.90
2603;DHT22;1311;47.966;7.958;2023-12-20T00:24:54;7.40;99.90
2603;DHT22;1311;47.966;7.958;2023-12-20T00:27:20;7.30;99.90
2603;DHT22;1311;47.966;7.958;2023-12-20T00:29:48;7.40;99.90
2603;DHT22;1311;47.966;7.958;2023-12-20T00:32:15;7.40;99.90
2603;DHT22;1311;47.966;7.958;2023-12-20T00:34:43;7.50;99.90
2603;DHT22;1311;47.966;7.958;2023-12-20T00:37:09;7.50;99.90
2603;DHT22;1311;47.966;7.958;2023-12-20T00:39:36;7.50;99.90
2603;DHT22;1311;47.966;7.958;2023-12-20T00:42:03;7.50;99.90
2603;DHT22;1311;47.966;7.958;2023-12-20T00:44:30;7.60;99.90
2603;DHT22;1311;47.966;7.958;2023-12-20T00:46:58;7.50;99.90
2603;DHT22;1311;47.966;7.958;2023-12-20T00:49:24;7.50;99.90
2603;DHT22;1311;47.966;7.958;2023-12-20T00:51:51;7.50;99.90
2603;DHT22;1311;47.966;7.958;2023-12-20T00:54:18;7.50;99.90
2603;DHT22;1311;47.966;7.958;2023-12-20T00:56:45;7.50;99.90
2603;DHT22;1311;47.966;7.958;2023-12-20T00:59:11;7.40;99.90
2603;DHT22;1311;47.966;7.958;2023-12-20T01:01:38;7.40;99.90
2603;DHT22;1311;47.966;7.958;2023-12-20T01:04:06;7.30;99.90
2603;DHT22;1311;47.966;7.958;2023-12-20T01:06:33;7.30;99.90
2603;DHT22;1311;47.966;7.958;2023-12-20T01:08:59;7.20;99.90
2603;DHT22;1311;47.966;7.958;2023-12-20T01:11:26;7.20;99.90
2603;DHT22;1311;47.966;7.958;2023-12-20T01:13:53;7.20;99.90
2603;DHT22;1311;47.966;7.958;2023-12-20T01:16:20;7.20;99.90
2603;DHT22;1311;47.966;7.958;2023-12-20T01:18:47;7.10;99.90
2603;DHT22;1311;47.966;7.958;2023-12-20T01:21:16;7.10;99.90
2603;DHT22;1311;47.966;7.958;2023-12-20T01:23:42;7.00;99.90
2603;DHT22;1311;47.966;7.958;2023-12-20T01:26:09;7.00;99.90
2603;DHT22;1311;47.966;7.958;2023-12-20T01:28:36;7.00;99.90
2603;DHT22;1311;47.966;7.958;2023-12-20T01:31:03;6.90;99.90
2603;DHT22;1311;47.966;7.958;2023-12-20T01:33:29;6.90;99.90
2603;DHT22;1311;47.966;7.958;2023-12-20T01:35:56;6.90;99.90
2603;DHT22;1311;47.966;7.958;2023-12-20T01:38:24;6.80;99.90
2603;DHT22;1311;47.966;7.958;2023-12-20T01:40:51;6.80;99.90
2603;DHT22;1311;47.966;7.958;2023-12-20T01:43:17;6.70;99.90
2603;DHT22;1311;47.966;7.958;2023-12-20T01:45:44;6.80;99.90
2603;DHT22;1311;47.966;7.958;2023-12-20T01:48:11;6.80;99.90
2603;DHT22;1311;47.966;7.958;2023-12-20T01:50:39;6.80;99.90
2603;DHT22;1311;47.966;7.958;2023-12-20T01:53:07;6.70;99.90
2603;DHT22;1311;47.966;7.958;2023-12-20T01:55:39;6.70;99.90
2603;DHT22;1311;47.966;7.958;2023-12-20T01:58:06;6.70;99.90
2603;DHT22;1311;47.966;7.958;2023-12-20T02:00:33;6.70;99.90
2603;DHT22;1311;47.966;7.958;2023-12-20T02:03:01;6.70;99.90
2603;DHT22;1311;47.966;7.958;2023-12-20T02:05:29;6.70;99.90
2603;DHT22;1311;47.966;7.958;2023-12-20T02:07:56;6.70;99.90
2603;DHT22;1311;47.966;7.958;2023-12-20T02:10:23;6.60;99.90
2603;DHT22;1311;47.966;7.958;2023-12-20T02:12:51;6.70;99.90
2603;DHT22;1311;47.966;7.958;2023-12-20T02:15:18;6.70;99.90
2603;DHT22;1311;47.966;7.958;2023-12-20T02:17:45;6.70;99.90
2603;DHT22;1311;47.966;7.958;2023-12-20T02:20:13;6.70;99.90
2603;DHT22;1311;47.966;7.958;2023-12-20T02:22:42;6.70;99.90
2603;DHT22;1311;47.966;7.958;2023-12-20T02:25:08;6.60;99.90
2603;DHT22;1311;47.966;7.958;2023-12-20T02:27:35;6.70;99.90
2603;DHT22;1311;47.966;7.958;2023-12-20T02:30:03;6.70;99.90
2603;DHT22;1311;47.966;7.958;2023-12-20T02:32:29;6.70;99.90
2603;DHT22;1311;47.966;7.958;2023-12-20T02:34:56;6.60;99.90
2603;DHT22;1311;47.966;7.958;2023-12-20T02:37:23;6.60;99.90
2603;DHT22;1311;47.966;7.958;2023-12-20T02:39:51;6.60;99.90
2603;DHT22;1311;47.966;7.958;2023-12-20T02:42:17;6.60;99.90
2603;DHT22;1311;47.966;7.958;2023-12-20T02:44:44;6.50;99.90
2603;DHT22;1311;47.966;7.958;2023-12-20T02:47:11;6.50;99.90
2603;DHT22;1311;47.966;7.958;2023-12-20T02:49:38;6.50;99.90
2603;DHT22;1311;47.966;7.958;2023-12-20T02:52:05;6.50;99.90
2603;DHT22;1311;47.966;7.958;2023-12-20T02:54:31;6.50;99.90
2603;DHT22;1311;47.966;7.958;2023-12-20T02:56:59;6.40;99.90
2603;DHT22;1311;47.966;7.958;2023-12-20T02:59:26;6.40;99.90
2603;DHT22;1311;47.966;7.958;2023-12-20T03:01:53;6.40;99.90
2603;DHT22;1311;47.966;7.958;2023-12-20T03:04:20;6.30;99.90
2603;DHT22;1311;47.966;7.958;2023-12-20T03:06:46;6.30;99.90
2603;DHT22;1311;47.966;7.958;2023-12-20T03:09:13;6.30;99.90
2603;DHT22;1311;47.966;7.958;2023-12-20T03:11:40;6.30;99.90
2603;DHT22;1311;47.966;7.958;2023-12-20T03:14:08;6.30;99.90
2603;DHT22;1311;47.966;7.958;2023-12-20T03:16:34;6.30;99.90
2603;DHT22;1311;47.966;7.958;2023-12-20T03:19:01;6.30;99.90
2603;DHT22;1311;47.966;7.958;2023-12-20T03:21:28;6.20;99.90
2603;DHT22;1311;47.966;7.958;2023-12-20T03:23:54;6.20;99.90
2603;DHT22;1311;47.966;7.958;2023-12-20T03:26:21;6.20;99.90
2603;DHT22;1311;47.966;7.958;2023-12-20T03:28:48;6.20;99.90
2603;DHT22;1311;47.966;7.958;2023-12-20T03:31:16;6.20;99.90
2603;DHT22;1311;47.966;7.958;2023-12-20T03:33:43;6.10;99.90
2603;DHT22;1311;47.966;7.958;2023-12-20T03:36:10;6.10;99.90
2603;DHT22;1311;47.966;7.958;2023-12-20T03:38:36;6.10;99.90
2603;DHT22;1311;47.966;7.958;2023-12-20T03:41:04;6.10;99.90
2603;DHT22;1311;47.966;7.958;2023-12-20T03:43:30;6.10;99.90
2603;DHT22;1311;47.966;7.958;2023-12-20T03:45:57;6.00;99.90
2603;DHT22;1311;47.966;7.958;2023-12-20T03:48:25;6.00;99.90
2603;DHT22;1311;47.966;7.958;2023-12-20T03:50:52;6.00;99.90
2603;DHT22;1311;47.966;7.958;2023-12-20T03:53:19;6.00;99.90
2603;DHT22;1311;47.966;7.958;2023-12-20T03:55:45;5.90;99.90
2603;DHT22;1311;47.966;7.958;2023-12-20T03:58:12;5.90;99.90
2603;DHT22;1311;47.966;7.958;2023-12-20T04:00:39;5.90;99.90
2603;DHT22;1311;47.966;7.958;2023-12-20T04:03:06;5.90;99.90
2603;DHT22;1311;47.966;7.958;2023-12-20T04:05:34;5.90;99.90
2603;DHT22;1311;47.966;7.958;2023-12-20T04:08:02;5.90;99.90
2603;DHT22;1311;47.966;7.958;2023-12-20T04:10:28;5.90;99.90
2603;DHT22;1311;47.966;7.958;2023-12-20T04:12:55;5.90;99.90
2603;DHT22;1311;47.966;7.958;2023-12-20T04:15:22;5.90;99.90
2603;DHT22;1311;47.966;7.958;2023-12-20T04:17:49;5.90;99.90
2603;DHT22;1311;47.966;7.958;2023-12-20T04:20:15;5.90;99.90
2603;DHT22;1311;47.966;7.958;2023-12-20T04:22:43;5.90;99.90
2603;DHT22;1311;47.966;7.958;2023-12-20T04:25:10;5.80;99.90
2603;DHT22;1311;47.966;7.958;2023-12-20T04:27:37;5.80;99.90
2603;DHT22;1311;47.966;7.958;2023-12-20T04:30:04;5.80;99.90
2603;DHT22;1311;47.966;7.958;2023-12-20T04:32:31;5.80;99.90
2603;DHT22;1311;47.966;7.958;2023-12-20T04:34:58;5.80;99.90
2603;DHT22;1311;47.966;7.958;2023-12-20T04:37:25;5.90;99.90
2603;DHT22;1311;47.966;7.958;2023-12-20T04:39:53;5.80;99.90
2603;DHT22;1311;47.966;7.958;2023-12-20T04:42:20;5.80;99.90
2603;DHT22;1311;47.966;7.958;2023-12-20T04:44:46;5.80;99.90
2603;DHT22;1311;47.966;7.958;2023-12-20T04:47:13;5.80;99.90
2603;DHT22;1311;47.966;7.958;2023-12-20T04:49:40;5.80;99.90
2603;DHT22;1311;47.966;7.958;2023-12-20T04:52:07;5.80;99.90
2603;DHT22;1311;47.966;7.958;2023-12-20T04:54:33;5.80;99.90
2603;DHT22;1311;47.966;7.958;2023-12-20T04:57:01;5.80;99.90
2603;DHT22;1311;47.966;7.958;2023-12-20T04:59:28;5.90;99.90
2603;DHT22;1311;47.966;7.958;2023-12-20T05:01:55;5.80;99.90
2603;DHT22;1311;47.966;7.958;2023-12-20T05:04:23;5.80;99.90
2603;DHT22;1311;47.966;7.958;2023-12-20T05:06:49;5.70;99.90
2603;DHT22;1311;47.966;7.958;2023-12-20T05:09:16;5.80;99.90
2603;DHT22;1311;47.966;7.958;2023-12-20T05:11:43;5.80;99.90
2603;DHT22;1311;47.966;7.958;2023-12-20T05:14:11;5.80;99.90
2603;DHT22;1311;47.966;7.958;2023-12-20T05:16:37;5.70;99.90
2603;DHT22;1311;47.966;7.958;2023-12-20T05:19:04;5.70;99.90
2603;DHT22;1311;47.966;7.958;2023-12-20T05:21:32;5.80;99.90
2603;DHT22;1311;47.966;7.958;2023-12-20T05:23:59;5.80;99.90
2603;DHT22;1311;47.966;7.958;2023-12-20T05:26:26;5.80;99.90
2603;DHT22;1311;47.966;7.958;2023-12-20T05:28:52;5.80;99.90
2603;DHT22;1311;47.966;7.958;2023-12-20T05:31:20;5.80;99.90
2603;DHT22;1311;47.966;7.958;2023-12-20T05:33:47;5.70;99.90
2603;DHT22;1311;47.966;7.958;2023-12-20T05:36:14;5.70;99.90
2603;DHT22;1311;47.966;7.958;2023-12-20T05:38:41;5.70;99.90
2603;DHT22;1311;47.966;7.958;2023-12-20T05:41:08;5.70;99.90
2603;DHT22;1311;47.966;7.958;2023-12-20T05:43:34;5.70;99.90
2603;DHT22;1311;47.966;7.958;2023-12-20T05:46:01;5.70;99.90
2603;DHT22;1311;47.966;7.958;2023-12-20T05:48:29;5.70;99.90
2603;DHT22;1311;47.966;7.958;2023-12-20T05:50:56;5.70;99.90
2603;DHT22;1311;47.966;7.958;2023-12-20T05:53:23;5.70;99.90
2603;DHT22;1311;47.966;7.958;2023-12-20T05:55:50;5.70;99.90
2603;DHT22;1311;47.966;7.958;2023-12-20T05:58:17;5.70;99.90
2603;DHT22;1311;47.966;7.958;2023-12-20T06:00:43;5.70;99.90
2603;DHT22;1311;47.966;7.958;2023-12-20T06:03:10;5.70;99.90
2603;DHT22;1311;47.966;7.958;2023-12-20T06:05:38;5.70;99.90
2603;DHT22;1311;47.966;7.958;2023-12-20T06:08:05;5.70;99.90
2603;DHT22;1311;47.966;7.958;2023-12-20T06:10:32;5.70;99.90
2603;DHT22;1311;47.966;7.958;2023-12-20T06:12:59;5.70;99.90
2603;DHT22;1311;47.966;7.958;2023-12-20T06:15:26;5.70;99.90
2603;DHT22;1311;47.966;7.958;2023-12-20T06:17:53;5.60;99.90
2603;DHT22;1311;47.966;7.958;2023-12-20T06:20:19;5.70;99.90
2603;DHT22;1311;47.966;7.958;2023-12-20T06:22:48;5.70;99.90
2603;DHT22;1311;47.966;7.958;2023-12-20T06:25:14;5.70;99.90
2603;DHT22;1311;47.966;7.958;2023-12-20T06:27:41;5.70;99.90
2603;DHT22;1311;47.966;7.958;2023-12-20T06:30:08;5.70;99.90
2603;DHT22;1311;47.966;7.958;2023-12-20T06:32:35;5.70;99.90
2603;DHT22;1311;47.966;7.958;2023-12-20T06:35:04;5.70;99.90
2603;DHT22;1311;47.966;7.958;2023-12-20T06:37:31;5.70;99.90
2603;DHT22;1311;47.966;7.958;2023-12-20T06:39:59;5.70;99.90
2603;DHT22;1311;47.966;7.958;2023-12-20T06:42:26;5.70;99.90
2603;DHT22;1311;47.966;7.958;2023-12-20T06:44:53;5.70;99.90
2603;DHT22;1311;47.966;7.958;2023-12-20T06:47:19;5.70;99.90
2603;DHT22;1311;47.966;7.958;2023-12-20T06:49:46;5.70;99.90
2603;DHT22;1311;47.966;7.958;2023-12-20T06:52:13;5.80;99.90
2603;DHT22;1311;47.966;7.958;2023-12-20T06:54:40;5.70;99.90
2603;DHT22;1311;47.966;7.958;2023-12-20T06:57:08;5.70;99.90
2603;DHT22;1311;47.966;7.958;2023-12-20T06:59:38;5.80;99.90
2603;DHT22;1311;47.966;7.958;2023-12-20T07:02:05;5.70;99.90
2603;DHT22;1311;47.966;7.958;2023-12-20T07:04:32;5.80;99.90
2603;DHT22;1311;47.966;7.958;2023-12-20T07:06:59;5.80;99.90
2603;DHT22;1311;47.966;7.958;2023-12-20T07:09:26;5.70;99.90
2603;DHT22;1311;47.966;7.958;2023-12-20T07:11:52;5.70;99.90
2603;DHT22;1311;47.966;7.958;2023-12-20T07:14:20;5.80;99.90
2603;DHT22;1311;47.966;7.958;2023-12-20T07:16:48;5.70;99.90
2603;DHT22;1311;47.966;7.958;2023-12-20T07:19:14;5.80;99.90
2603;DHT22;1311;47.966;7.958;2023-12-20T07:21:41;5.80;99.90
2603;DHT22;1311;47.966;7.958;2023-12-20T07:24:08;5.80;99.90
2603;DHT22;1311;47.966;7.958;2023-12-20T07:26:35;5.80;99.90
2603;DHT22;1311;47.966;7.958;2023-12-20T07:29:03;5.80;99.90
2603;DHT22;1311;47.966;7.958;2023-12-20T07:31:31;5.80;99.90
2603;DHT22;1311;47.966;7.958;2023-12-20T07:33:58;5.80;99.90
2603;DHT22;1311;47.966;7.958;2023-12-20T07:36:24;5.80;99.90
2603;DHT22;1311;47.966;7.958;2023-12-20T07:38:51;5.80;99.90
2603;DHT22;1311;47.966;7.958;2023-12-20T07:41:18;5.80;99.90
2603;DHT22;1311;47.966;7.958;2023-12-20T07:43:46;5.80;99.90
2603;DHT22;1311;47.966;7.958;2023-12-20T07:46:13;5.80;99.90
2603;DHT22;1311;47.966;7.958;2023-12-20T07:48:41;5.90;99.90
2603;DHT22;1311;47.966;7.958;2023-12-20T07:51:08;5.90;99.90
2603;DHT22;1311;47.966;7.958;2023-12-20T07:53:35;5.90;99.90
2603;DHT22;1311;47.966;7.958;2023-12-20T07:56:12;5.90;99.90
2603;DHT22;1311;47.966;7.958;2023-12-20T07:58:39;5.90;99.90
2603;DHT22;1311;47.966;7.958;2023-12-20T08:01:06;5.90;99.90
2603;DHT22;1311;47.966;7.958;2023-12-20T08:03:33;5.90;99.90
2603;DHT22;1311;47.966;7.958;2023-12-20T08:06:01;5.90;99.90
2603;DHT22;1311;47.966;7.958;2023-12-20T08:08:28;5.90;99.90
2603;DHT22;1311;47.966;7.958;2023-12-20T08:10:55;5.90;99.90
2603;DHT22;1311;47.966;7.958;2023-12-20T08:13:23;5.90;99.90
2603;DHT22;1311;47.966;7.958;2023-12-20T08:15:51;6.00;99.90
2603;DHT22;1311;47.966;7.958;2023-12-20T08:18:18;6.00;99.90
2603;DHT22;1311;47.966;7.958;2023-12-20T08:20:45;6.00;99.90
2603;DHT22;1311;47.966;7.958;2023-12-20T08:23:14;6.00;99.90
2603;DHT22;1311;47.966;7.958;2023-12-20T08:25:41;6.00;99.90
2603;DHT22;1311;47.966;7.958;2023-12-20T08:28:08;6.00;99.90
2603;DHT22;1311;47.966;7.958;2023-12-20T08:30:35;6.00;99.90
2603;DHT22;1311;47.966;7.958;2023-12-20T08:33:02;6.00;99.90
2603;DHT22;1311;47.966;7.958;2023-12-20T08:35:29;6.00;99.90
2603;DHT22;1311;47.966;7.958;2023-12-20T08:37:55;6.00;99.90
2603;DHT22;1311;47.966;7.958;2023-12-20T08:40:23;6.00;99.90
2603;DHT22;1311;47.966;7.958;2023-12-20T08:42:50;6.00;99.90
2603;DHT22;1311;47.966;7.958;2023-12-20T08:45:17;6.10;99.90
2603;DHT22;1311;47.966;7.958;2023-12-20T08:47:43;6.10;99.90
2603;DHT22;1311;47.966;7.958;2023-12-20T08:50:11;6.10;99.90
2603;DHT22;1311;47.966;7.958;2023-12-20T08:52:37;6.00;99.90
2603;DHT22;1311;47.966;7.958;2023-12-20T08:55:05;6.10;99.90
2603;DHT22;1311;47.966;7.958;2023-12-20T08:57:33;6.10;99.90
2603;DHT22;1311;47.966;7.958;2023-12-20T09:00:00;6.10;99.90
2603;DHT22;1311;47.966;7.958;2023-12-20T09:02:27;6.10;99.90
2603;DHT22;1311;47.966;7.958;2023-12-20T09:04:54;6.20;99.90
2603;DHT22;1311;47.966;7.958;2023-12-20T09:07:22;6.20;99.90
2603;DHT22;1311;47.966;7.958;2023-12-20T09:09:49;6.10;99.90
2603;DHT22;1311;47.966;7.958;2023-12-20T09:12:17;6.00;99.90
2603;DHT22;1311;47.966;7.958;2023-12-20T09:14:45;6.00;99.90
2603;DHT22;1311;47.966;7.958;2023-12-20T09:17:12;6.00;99.90
2603;DHT22;1311;47.966;7.958;2023-12-20T09:19:39;6.00;99.90
2603;DHT22;1311;47.966;7.958;2023-12-20T09:22:06;6.10;99.90
2603;DHT22;1311;47.966;7.958;2023-12-20T09:24:33;6.10;99.90
2603;DHT22;1311;47.966;7.958;2023-12-20T09:27:00;6.10;99.90
2603;DHT22;1311;47.966;7.958;2023-12-20T09:29:26;6.10;99.90
2603;DHT22;1311;47.966;7.958;2023-12-20T09:31:54;6.10;99.90
2603;DHT22;1311;47.966;7.958;2023-12-20T09:34:22;6.10;99.90
2603;DHT22;1311;47.966;7.958;2023-12-20T09:36:49;6.10;99.90
2603;DHT22;1311;47.966;7.958;2023-12-20T09:39:18;6.20;99.90
2603;DHT22;1311;47.966;7.958;2023-12-20T09:41:51;6.20;99.90
2603;DHT22;1311;47.966;7.958;2023-12-20T09:44:18;6.30;99.90
2603;DHT22;1311;47.966;7.958;2023-12-20T09:46:46;6.40;99.90
2603;DHT22;1311;47.966;7.958;2023-12-20T09:49:17;6.50;99.90
2603;DHT22;1311;47.966;7.958;2023-12-20T09:51:45;6.50;99.90
2603;DHT22;1311;47.966;7.958;2023-12-20T09:54:14;6.20;99.90
2603;DHT22;1311;47.966;7.958;2023-12-20T09:56:41;6.20;99.90
2603;DHT22;1311;47.966;7.958;2023-12-20T09:59:07;6.30;99.90
2603;DHT22;1311;47.966;7.958;2023-12-20T10:01:35;6.20;99.90
2603;DHT22;1311;47.966;7.958;2023-12-20T10:04:04;6.20;99.90
2603;DHT22;1311;47.966;7.958;2023-12-20T10:06:34;6.20;99.90
2603;DHT22;1311;47.966;7.958;2023-12-20T10:09:00;6.30;99.90
2603;DHT22;1311;47.966;7.958;2023-12-20T10:11:27;6.30;99.90
2603;DHT22;1311;47.966;7.958;2023-12-20T10:13:59;6.20;99.90
2603;DHT22;1311;47.966;7.958;2023-12-20T10:16:27;6.40;99.90
2603;DHT22;1311;47.966;7.958;2023-12-20T10:18:54;6.30;99.90
2603;DHT22;1311;47.966;7.958;2023-12-20T10:21:21;6.30;99.90
2603;DHT22;1311;47.966;7.958;2023-12-20T10:23:50;6.20;99.90
2603;DHT22;1311;47.966;7.958;2023-12-20T10:26:19;6.20;99.90
2603;DHT22;1311;47.966;7.958;2023-12-20T10:28:50;6.30;99.90
2603;DHT22;1311;47.966;7.958;2023-12-20T10:31:26;6.20;99.90
2603;DHT22;1311;47.966;7.958;2023-12-20T10:33:55;6.20;99.90
2603;DHT22;1311;47.966;7.958;2023-12-20T10:36:23;6.20;99.90
2603;DHT22;1311;47.966;7.958;2023-12-20T10:38:55;6.10;99.90
2603;DHT22;1311;47.966;7.958;2023-12-20T10:41:25;6.00;99.90
2603;DHT22;1311;47.966;7.958;2023-12-20T10:43:57;5.90;99.90
2603;DHT22;1311;47.966;7.958;2023-12-20T10:46:26;5.80;99.90
2603;DHT22;1311;47.966;7.958;2023-12-20T10:48:54;5.80;99.90
2603;DHT22;1311;47.966;7.958;2023-12-20T10:51:21;5.90;99.90
2603;DHT22;1311;47.966;7.958;2023-12-20T10:53:50;5.90;99.90
2603;DHT22;1311;47.966;7.958;2023-12-20T10:56:18;5.90;99.90
2603;DHT22;1311;47.966;7.958;2023-12-20T10:58:46;6.00;99.90
2603;DHT22;1311;47.966;7.958;2023-12-20T11:01:14;6.00;99.90
2603;DHT22;1311;47.966;7.958;2023-12-20T11:03:46;6.10;99.90
2603;DHT22;1311;47.966;7.958;2023-12-20T11:06:26;6.10;99.90
2603;DHT22;1311;47.966;7.958;2023-12-20T11:08:59;6.10;99.90
2603;DHT22;1311;47.966;7.958;2023-12-20T11:11:42;6.20;99.90
2603;DHT22;1311;47.966;7.958;2023-12-20T11:14:16;6.40;99.90
2603;DHT22;1311;47.966;7.958;2023-12-20T11:16:45;6.50;99.90
2603;DHT22;1311;47.966;7.958;2023-12-20T11:19:12;6.30;99.90
2603;DHT22;1311;47.966;7.958;2023-12-20T11:21:40;6.30;99.90
2603;DHT22;1311;47.966;7.958;2023-12-20T11:24:07;6.40;99.90
2603;DHT22;1311;47.966;7.958;2023-12-20T11:26:35;6.40;99.90
2603;DHT22;1311;47.966;7.958;2023-12-20T11:29:33;6.50;99.90
2603;DHT22;1311;47.966;7.958;2023-12-20T11:32:01;6.50;99.90
2603;DHT22;1311;47.966;7.958;2023-12-20T11:34:31;6.60;99.90
2603;DHT22;1311;47.966;7.958;2023-12-20T11:36:59;6.60;99.90
2603;DHT22;1311;47.966;7.958;2023-12-20T11:39:26;6.70;99.90
2603;DHT22;1311;47.966;7.958;2023-12-20T11:41:56;6.90;99.90
2603;DHT22;1311;47.966;7.958;2023-12-20T11:44:25;7.20;99.90
2603;DHT22;1311;47.966;7.958;2023-12-20T11:46:52;7.30;99.90
2603;DHT22;1311;47.966;7.958;2023-12-20T11:49:23;7.40;99.90
2603;DHT22;1311;47.966;7.958;2023-12-20T11:51:50;7.50;99.90
2603;DHT22;1311;47.966;7.958;2023-12-20T11:54:17;7.50;99.90
2603;DHT22;1311;47.966;7.958;2023-12-20T11:56:44;7.90;99.90
2603;DHT22;1311;47.966;7.958;2023-12-20T11:59:12;8.00;99.90
2603;DHT22;1311;47.966;7.958;2023-12-20T12:01:39;8.10;99.90
2603;DHT22;1311;47.966;7.958;2023-12-20T12:04:06;8.30;99.90
2603;DHT22;1311;47.966;7.958;2023-12-20T12:06:33;8.20;99.90
2603;DHT22;1311;47.966;7.958;2023-12-20T12:09:00;8.10;99.90
2603;DHT22;1311;47.966;7.958;2023-12-20T12:11:27;7.90;99.90
2603;DHT22;1311;47.966;7.958;2023-12-20T12:13:53;7.90;99.90
2603;DHT22;1311;47.966;7.958;2023-12-20T12:16:22;8.10;99.90
2603;DHT22;1311;47.966;7.958;2023-12-20T12:18:55;8.00;99.90
2603;DHT22;1311;47.966;7.958;2023-12-20T12:21:22;8.00;99.90
2603;DHT22;1311;47.966;7.958;2023-12-20T12:23:49;7.90;99.90
2603;DHT22;1311;47.966;7.958;2023-12-20T12:26:16;7.80;99.90
2603;DHT22;1311;47.966;7.958;2023-12-20T12:28:43;7.70;99.90
2603;DHT22;1311;47.966;7.958;2023-12-20T12:31:13;7.40;99.90
2603;DHT22;1311;47.966;7.958;2023-12-20T12:33:42;7.20;99.90
2603;DHT22;1311;47.966;7.958;2023-12-20T12:36:10;7.10;99.90
2603;DHT22;1311;47.966;7.958;2023-12-20T12:38:37;7.10;99.90
2603;DHT22;1311;47.966;7.958;2023-12-20T12:41:04;7.20;99.90
2603;DHT22;1311;47.966;7.958;2023-12-20T12:43:32;7.10;99.90
2603;DHT22;1311;47.966;7.958;2023-12-20T12:45:59;7.00;99.90
2603;DHT22;1311;47.966;7.958;2023-12-20T12:48:26;6.90;99.90
2603;DHT22;1311;47.966;7.958;2023-12-20T12:50:55;7.00;99.90
2603;DHT22;1311;47.966;7.958;2023-12-20T12:53:25;7.00;99.90
2603;DHT22;1311;47.966;7.958;2023-12-20T12:55:52;7.00;99.90
2603;DHT22;1311;47.966;7.958;2023-12-20T12:58:19;6.90;99.90
2603;DHT22;1311;47.966;7.958;2023-12-20T13:00:45;6.90;99.90
2603;DHT22;1311;47.966;7.958;2023-12-20T13:03:12;7.00;99.90
2603;DHT22;1311;47.966;7.958;2023-12-20T13:05:39;7.20;99.90
2603;DHT22;1311;47.966;7.958;2023-12-20T13:08:07;7.30;99.90
2603;DHT22;1311;47.966;7.958;2023-12-20T13:10:35;7.30;99.90
2603;DHT22;1311;47.966;7.958;2023-12-20T13:13:01;7.30;99.90
2603;DHT22;1311;47.966;7.958;2023-12-20T13:15:29;7.20;99.90
2603;DHT22;1311;47.966;7.958;2023-12-20T13:17:57;7.10;99.90
2603;DHT22;1311;47.966;7.958;2023-12-20T13:20:23;7.00;99.90
2603;DHT22;1311;47.966;7.958;2023-12-20T13:22:50;7.00;99.90
2603;DHT22;1311;47.966;7.958;2023-12-20T13:25:18;6.80;99.90
2603;DHT22;1311;47.966;7.958;2023-12-20T13:27:45;6.80;99.90
2603;DHT22;1311;47.966;7.958;2023-12-20T13:30:12;6.80;99.90
2603;DHT22;1311;47.966;7.958;2023-12-20T13:32:39;6.70;99.90
2603;DHT22;1311;47.966;7.958;2023-12-20T13:35:06;6.80;99.90
2603;DHT22;1311;47.966;7.958;2023-12-20T13:37:33;6.80;99.90
2603;DHT22;1311;47.966;7.958;2023-12-20T13:40:00;6.90;99.90
2603;DHT22;1311;47.966;7.958;2023-12-20T13:42:30;6.80;99.90
2603;DHT22;1311;47.966;7.958;2023-12-20T13:44:56;6.90;99.90
2603;DHT22;1311;47.966;7.958;2023-12-20T13:47:23;6.80;99.90
2603;DHT22;1311;47.966;7.958;2023-12-20T13:49:50;6.90;99.90
2603;DHT22;1311;47.966;7.958;2023-12-20T13:52:16;6.90;99.90
2603;DHT22;1311;47.966;7.958;2023-12-20T13:54:44;6.80;99.90
2603;DHT22;1311;47.966;7.958;2023-12-20T13:57:10;6.80;99.90
2603;DHT22;1311;47.966;7.958;2023-12-20T13:59:38;6.80;99.90
2603;DHT22;1311;47.966;7.958;2023-12-20T14:02:05;6.80;99.90
2603;DHT22;1311;47.966;7.958;2023-12-20T14:04:32;6.70;99.90
2603;DHT22;1311;47.966;7.958;2023-12-20T14:06:59;6.80;99.90
2603;DHT22;1311;47.966;7.958;2023-12-20T14:09:25;6.90;99.90
2603;DHT22;1311;47.966;7.958;2023-12-20T14:11:52;6.70;99.90
2603;DHT22;1311;47.966;7.958;2023-12-20T14:14:20;6.70;99.90
2603;DHT22;1311;47.966;7.958;2023-12-20T14:16:48;6.70;99.90
2603;DHT22;1311;47.966;7.958;2023-12-20T14:19:15;6.70;99.90
2603;DHT22;1311;47.966;7.958;2023-12-20T14:21:42;6.60;99.90
2603;DHT22;1311;47.966;7.958;2023-12-20T14:24:11;6.50;99.90
2603;DHT22;1311;47.966;7.958;2023-12-20T14:26:40;6.50;99.90
2603;DHT22;1311;47.966;7.958;2023-12-20T14:29:07;6.40;99.90
2603;DHT22;1311;47.966;7.958;2023-12-20T14:31:34;6.40;99.90
2603;DHT22;1311;47.966;7.958;2023-12-20T14:34:03;6.40;99.90
2603;DHT22;1311;47.966;7.958;2023-12-20T14:36:30;6.40;99.90
2603;DHT22;1311;47.966;7.958;2023-12-20T14:38:57;6.40;99.90
2603;DHT22;1311;47.966;7.958;2023-12-20T14:41:24;6.30;99.90
2603;DHT22;1311;47.966;7.958;2023-12-20T14:43:51;6.30;99.90
2603;DHT22;1311;47.966;7.958;2023-12-20T14:46:19;6.30;99.90
2603;DHT22;1311;47.966;7.958;2023-12-20T14:48:45;6.20;99.90
2603;DHT22;1311;47.966;7.958;2023-12-20T14:51:15;6.20;99.90
2603;DHT22;1311;47.966;7.958;2023-12-20T14:53:42;6.10;99.90
2603;DHT22;1311;47.966;7.958;2023-12-20T14:56:08;6.10;99.90
2603;DHT22;1311;47.966;7.958;2023-12-20T14:58:35;6.10;99.90
2603;DHT22;1311;47.966;7.958;2023-12-20T15:01:02;6.00;99.90
2603;DHT22;1311;47.966;7.958;2023-12-20T15:03:29;6.00;99.90
2603;DHT22;1311;47.966;7.958;2023-12-20T15:05:56;6.00;99.90
2603;DHT22;1311;47.966;7.958;2023-12-20T15:08:25;6.00;99.90
2603;DHT22;1311;47.966;7.958;2023-12-20T15:10:52;5.90;99.90
2603;DHT22;1311;47.966;7.958;2023-12-20T15:13:19;5.90;99.90
2603;DHT22;1311;47.966;7.958;2023-12-20T15:15:46;5.80;99.90
2603;DHT22;1311;47.966;7.958;2023-12-20T15:18:12;5.80;99.90
2603;DHT22;1311;47.966;7.958;2023-12-20T15:20:40;5.80;99.90
2603;DHT22;1311;47.966;7.958;2023-12-20T15:23:09;5.80;99.90
2603;DHT22;1311;47.966;7.958;2023-12-20T15:25:37;5.80;99.90
2603;DHT22;1311;47.966;7.958;2023-12-20T15:28:04;5.80;99.90
2603;DHT22;1311;47.966;7.958;2023-12-20T15:30:31;5.80;99.90
2603;DHT22;1311;47.966;7.958;2023-12-20T15:32:58;5.70;99.90
2603;DHT22;1311;47.966;7.958;2023-12-20T15:35:25;5.70;99.90
2603;DHT22;1311;47.966;7.958;2023-12-20T15:37:52;5.70;99.90
2603;DHT22;1311;47.966;7.958;2023-12-20T15:40:19;5.60;99.90
2603;DHT22;1311;47.966;7.958;2023-12-20T15:42:47;5.60;99.90
2603;DHT22;1311;47.966;7.958;2023-12-20T15:45:13;5.60;99.90
2603;DHT22;1311;47.966;7.958;2023-12-20T15:47:40;5.60;99.90
2603;DHT22;1311;47.966;7.958;2023-12-20T15:50:07;5.60;99.90
2603;DHT22;1311;47.966;7.958;2023-12-20T15:52:34;5.60;99.90
2603;DHT22;1311;47.966;7.958;2023-12-20T15:55:02;5.60;99.90
2603;DHT22;1311;47.966;7.958;2023-12-20T15:57:29;5.50;99.90
2603;DHT22;1311;47.966;7.958;2023-12-20T15:59:57;5.50;99.90
2603;DHT22;1311;47.966;7.958;2023-12-20T16:02:24;5.50;99.90
2603;DHT22;1311;47.966;7.958;2023-12-20T16:04:51;5.50;99.90
2603;DHT22;1311;47.966;7.958;2023-12-20T16:07:18;5.50;99.90
2603;DHT22;1311;47.966;7.958;2023-12-20T16:09:44;5.50;99.90
2603;DHT22;1311;47.966;7.958;2023-12-20T16:12:11;5.50;99.90
2603;DHT22;1311;47.966;7.958;2023-12-20T16:14:38;5.50;99.90
2603;DHT22;1311;47.966;7.958;2023-12-20T16:17:06;5.40;99.90